South Channel Island, Victoria

10:16 PM AEST on June 03, 2015 (GMT +1000)
Blairgowrie | | Change Station
CLOSE
Current Station
Personal Weather Station
Location: Blairgowrie, VICTORIA
Elevation: 36 ft
Nearby Weather Stations

Elev 36 ft 38.37 °S, 144.79 °E | Updated 14 minutes ago

Clear
Clear
49.5 °F
Feels Like 50 °F
N
3.0
Wind Variable Wind from North
Gusts 4.0 mph

Today
High -- | Low -- °F
--% Chance of Precip.
Yesterday
High -- | Low -- °F
Precip. -- in
7:29 AM 5:08 PM
Full, 99% visible
Pressure 30.18 in
Visibility 3.7 miles
Clouds
Windchill 50 °F
Dew Point 48 °F
Humidity 95%
Rainfall 0.00 in
Snow Depth Not available.
UV 0.0 out of 12
Pollen Not available.
Air Quality Not available.
Flu Activity Not available.
SPECI YMEN 031207Z AUTO 35007KT 6000 // NCD 06/05 Q1022

More Conditions Fewer Conditions

Pressure 30.18 in
Visibility 3.7 miles
Clouds
Windchill 50 °F
Dew Point 48 °F
Humidity 95%
Rainfall 0.00 in
Snow Depth Not available.
UV 0.0 out of 12
Pollen Not available.
Air Quality Not available.
Flu Activity Not available.
SPECI YMEN 031207Z AUTO 35007KT 6000 // NCD 06/05 Q1022

More Conditions Fewer Conditions

10-Day Weather Forecast

×

Almanac

Astronomy

Jun. 03, 2015 Rise Set
Actual Time
Civil Twilight
Nautical Twilight
Astronomical Twilight
Moon
Length of Visible Light
Length of Day
Tomorrow will be .
, % of the Moon is Illuminated

Today's Extremes

Country Highs Country Lows

Community

WunderPhotos

Upload Photos

1,826,205 photos uploaded!

WunderBlogs® & News

Nearby

Air Quality

  Air Quality AQ Index Pollutant
Not available.

Snow Depth

Station Depth Elevation

Earthquake Activity

City Distance Mag. Time & Date
Minimum magnitude displayed is 2.5.

Coastal Water Temperatures

Place Temperature

Stations

Nearby Weather Stations

Station Location Temp. Windchill Dew Point Humidity Wind Precip. Elev Updated Type